createdAt,value
2023-09-12T00:00:00.826Z,12.85
2023-09-12T00:02:36.087Z,13.13
2023-09-12T00:05:08.689Z,13.60
2023-09-12T00:07:42.143Z,12.80
2023-09-12T00:10:14.322Z,12.95
2023-09-12T00:12:48.139Z,13.18
2023-09-12T00:15:21.095Z,14.55
2023-09-12T00:17:53.840Z,13.43
2023-09-12T00:20:26.336Z,13.45
2023-09-12T00:22:58.706Z,13.08
2023-09-12T00:25:31.043Z,13.30
2023-09-12T00:28:03.272Z,14.15
2023-09-12T00:30:35.680Z,12.75
2023-09-12T00:33:07.958Z,13.53
2023-09-12T00:35:42.154Z,14.18
2023-09-12T00:38:14.790Z,14.20
2023-09-12T00:40:47.052Z,14.13
2023-09-12T00:43:19.946Z,13.75
2023-09-12T00:45:52.597Z,14.07
2023-09-12T00:48:26.121Z,14.33
2023-09-12T00:50:59.436Z,14.18
2023-09-12T00:53:31.654Z,13.72
2023-09-12T00:56:04.681Z,13.90
2023-09-12T00:58:36.841Z,13.10
2023-09-12T01:01:09.887Z,13.22
2023-09-12T01:03:42.539Z,12.75
2023-09-12T01:06:16.959Z,13.58
2023-09-12T01:08:49.737Z,14.18
2023-09-12T01:11:23.144Z,14.18
2023-09-12T01:13:55.321Z,14.78
2023-09-12T01:16:27.766Z,14.35
2023-09-12T01:19:00.011Z,14.10
2023-09-12T01:22:06.491Z,14.00
2023-09-12T01:24:50.366Z,14.80
2023-09-12T01:27:30.645Z,14.87
2023-09-12T01:30:05.917Z,14.95
2023-09-12T01:32:39.861Z,13.95
2023-09-12T01:35:12.385Z,15.13
2023-09-12T01:37:44.566Z,14.38
2023-09-12T01:40:18.281Z,14.45
2023-09-12T01:42:52.702Z,15.03
2023-09-12T01:45:25.404Z,14.10
2023-09-12T01:47:58.717Z,15.25
2023-09-12T01:50:32.933Z,15.78
2023-09-12T01:55:38.231Z,14.58
2023-09-12T01:58:10.995Z,15.23
2023-09-12T02:00:43.646Z,14.63
2023-09-12T02:03:16.204Z,14.75
2023-09-12T02:05:49.011Z,17.30
2023-09-12T02:08:21.278Z,16.48
2023-09-12T02:10:53.635Z,15.72
2023-09-12T02:13:26.488Z,15.30
2023-09-12T02:16:04.536Z,16.70
2023-09-12T02:18:37.097Z,14.93
2023-09-12T02:21:09.471Z,15.00
2023-09-12T02:23:42.049Z,15.23
2023-09-12T02:26:14.292Z,15.65
2023-09-12T02:28:48.089Z,15.15
2023-09-12T02:31:20.331Z,14.80
2023-09-12T02:33:52.737Z,15.28
2023-09-12T02:36:25.123Z,15.63
2023-09-12T02:38:57.597Z,15.23
2023-09-12T02:41:30.001Z,15.45
2023-09-12T02:44:02.419Z,15.45
2023-09-12T02:46:35.104Z,15.95
2023-09-12T02:49:07.387Z,14.75
2023-09-12T02:51:43.320Z,15.60
2023-09-12T02:54:15.869Z,15.45
2023-09-12T02:56:48.428Z,15.98
2023-09-12T02:59:20.946Z,16.15
2023-09-12T03:01:53.246Z,15.98
2023-09-12T03:04:29.876Z,16.15
2023-09-12T03:07:02.581Z,16.30
2023-09-12T03:09:35.235Z,15.90
2023-09-12T03:12:08.659Z,15.83
2023-09-12T03:14:42.525Z,16.30
2023-09-12T03:17:15.402Z,16.07
2023-09-12T03:19:48.241Z,26.77
2023-09-12T03:22:20.744Z,20.72
2023-09-12T03:24:53.041Z,16.20
2023-09-12T03:27:25.463Z,17.48
2023-09-12T03:29:58.388Z,50.48
2023-09-12T03:32:32.688Z,18.52
2023-09-12T03:35:04.967Z,18.25
2023-09-12T03:37:38.982Z,15.55
2023-09-12T03:40:15.302Z,16.20
2023-09-12T03:42:49.030Z,15.50
2023-09-12T03:45:22.848Z,15.60
2023-09-12T03:47:55.953Z,15.63
2023-09-12T03:50:29.739Z,15.35
2023-09-12T03:53:05.158Z,15.98
2023-09-12T03:55:38.064Z,16.00
2023-09-12T03:58:10.560Z,16.77
2023-09-12T04:00:43.423Z,17.10
2023-09-12T04:03:17.692Z,16.07
2023-09-12T04:05:50.383Z,16.48
2023-09-12T04:08:23.127Z,17.10
2023-09-12T04:10:55.422Z,15.98
2023-09-12T04:13:30.078Z,17.45
2023-09-12T04:16:02.409Z,16.67
2023-09-12T04:18:35.808Z,16.75
2023-09-12T04:21:08.784Z,15.75
2023-09-12T04:23:42.269Z,16.30
2023-09-12T04:26:15.068Z,16.97
2023-09-12T04:28:49.609Z,15.88
2023-09-12T04:31:22.277Z,17.23
2023-09-12T04:33:55.506Z,15.08
2023-09-12T04:36:28.939Z,15.88
2023-09-12T04:39:02.074Z,15.90
2023-09-12T04:41:35.281Z,16.17
2023-09-12T04:44:08.374Z,17.45
2023-09-12T04:46:44.384Z,16.48
2023-09-12T04:49:16.418Z,16.32
2023-09-12T04:51:49.741Z,16.52
2023-09-12T04:54:22.269Z,15.30
2023-09-12T04:56:56.375Z,16.57
2023-09-12T04:59:29.084Z,15.80
2023-09-12T05:04:35.290Z,14.43
2023-09-12T05:07:08.246Z,15.40
2023-09-12T05:09:41.394Z,15.05
2023-09-12T05:12:15.347Z,16.23
2023-09-12T05:14:47.999Z,15.30
2023-09-12T05:17:20.781Z,15.68
2023-09-12T05:19:53.405Z,15.32
2023-09-12T05:22:26.613Z,15.18
2023-09-12T05:24:59.706Z,15.00
2023-09-12T05:30:05.954Z,15.85
2023-09-12T05:32:40.765Z,15.45
2023-09-12T05:35:21.456Z,16.25
2023-09-12T05:40:20.973Z,14.20
2023-09-12T05:42:54.827Z,15.97
2023-09-12T05:45:27.803Z,14.58
2023-09-12T05:48:01.036Z,14.90
2023-09-12T05:50:35.038Z,14.70
2023-09-12T05:53:10.215Z,14.05
2023-09-12T05:55:43.436Z,13.70
2023-09-12T06:00:50.177Z,13.72
2023-09-12T06:03:24.073Z,14.75
2023-09-12T06:05:56.710Z,14.10
2023-09-12T06:08:29.770Z,15.23
2023-09-12T06:11:02.257Z,14.70
2023-09-12T06:13:36.912Z,13.88
2023-09-12T06:16:09.863Z,14.25
2023-09-12T06:18:42.498Z,14.45
2023-09-12T06:21:16.291Z,14.23
2023-09-12T06:23:50.337Z,14.60
2023-09-12T06:26:23.247Z,14.85
2023-09-12T06:28:56.223Z,14.38
2023-09-12T06:31:29.866Z,14.45
2023-09-12T06:34:02.859Z,14.00
2023-09-12T06:36:36.093Z,14.07
2023-09-12T06:39:09.954Z,14.85
2023-09-12T06:41:43.515Z,15.32
2023-09-12T06:44:16.324Z,15.53
2023-09-12T06:46:49.655Z,12.23
2023-09-12T06:49:22.277Z,14.20
2023-09-12T06:51:55.168Z,13.72
2023-09-12T06:54:28.060Z,14.60
2023-09-12T06:57:00.562Z,14.70
2023-09-12T06:59:33.469Z,14.23
2023-09-12T07:02:06.313Z,15.60
2023-09-12T07:04:40.200Z,14.28
2023-09-12T07:07:13.199Z,14.10
2023-09-12T07:09:46.301Z,15.28
2023-09-12T07:12:19.729Z,16.23
2023-09-12T07:14:53.321Z,15.88
2023-09-12T07:17:26.168Z,16.17
2023-09-12T07:20:00.968Z,17.00
2023-09-12T07:22:35.590Z,15.15
2023-09-12T07:25:11.039Z,15.48
2023-09-12T07:27:44.791Z,14.80
2023-09-12T07:30:19.919Z,15.72
2023-09-12T07:32:53.242Z,16.20
2023-09-12T07:35:27.159Z,14.40
2023-09-12T07:38:00.220Z,14.13
2023-09-12T07:40:32.566Z,13.28
2023-09-12T07:43:05.908Z,14.35
2023-09-12T07:45:39.786Z,14.95
2023-09-12T07:48:16.240Z,16.17
2023-09-12T07:50:50.147Z,16.37
2023-09-12T07:53:24.347Z,16.97
2023-09-12T07:55:59.664Z,16.12
2023-09-12T07:58:32.754Z,17.30
2023-09-12T08:01:12.015Z,15.78
2023-09-12T08:03:46.006Z,16.65
2023-09-12T08:08:53.513Z,14.55
2023-09-12T08:11:27.802Z,16.27
2023-09-12T08:14:01.053Z,17.02
2023-09-12T08:16:33.918Z,15.20
2023-09-12T08:19:06.484Z,14.73
2023-09-12T08:21:39.924Z,15.98
2023-09-12T08:24:14.308Z,15.58
2023-09-12T08:26:49.128Z,15.78
2023-09-12T08:29:24.184Z,15.05
2023-09-12T08:31:57.866Z,15.00
2023-09-12T08:37:02.899Z,12.93
2023-09-12T08:39:46.578Z,12.82
2023-09-12T08:42:19.579Z,12.98
2023-09-12T08:44:54.258Z,11.18
2023-09-12T08:47:28.749Z,11.10
2023-09-12T08:50:02.003Z,9.75
2023-09-12T08:52:35.063Z,10.40
2023-09-12T08:55:09.243Z,10.05
2023-09-12T08:57:44.438Z,9.58
2023-09-12T09:00:34.421Z,9.40
2023-09-12T09:03:09.824Z,9.10
2023-09-12T09:05:46.329Z,9.50
2023-09-12T09:08:21.898Z,9.20
2023-09-12T09:10:59.712Z,9.53
2023-09-12T09:13:32.868Z,10.30
2023-09-12T09:16:16.026Z,8.75
2023-09-12T09:19:00.658Z,8.18
2023-09-12T09:24:12.608Z,8.43
2023-09-12T09:26:49.272Z,7.42
2023-09-12T09:29:23.333Z,7.08
2023-09-12T09:31:56.426Z,7.30
2023-09-12T09:34:30.924Z,8.60
2023-09-12T09:37:05.367Z,8.13
2023-09-12T09:42:13.224Z,8.35
2023-09-12T09:44:49.607Z,10.50
2023-09-12T09:47:22.767Z,9.35
2023-09-12T09:49:55.519Z,9.60
2023-09-12T09:52:31.549Z,9.05
2023-09-12T09:55:06.869Z,9.98
2023-09-12T09:57:43.761Z,9.80
2023-09-12T10:00:19.866Z,9.13
2023-09-12T10:02:54.033Z,8.60
2023-09-12T10:05:28.965Z,8.80
2023-09-12T10:08:04.266Z,7.03
2023-09-12T10:10:38.161Z,9.00
2023-09-12T10:13:12.583Z,8.93
2023-09-12T10:15:47.351Z,8.83
2023-09-12T10:21:10.726Z,8.53
2023-09-12T10:23:51.174Z,7.85
2023-09-12T10:26:24.947Z,8.40
2023-09-12T10:28:57.565Z,9.83
2023-09-12T10:31:31.534Z,7.17
2023-09-12T10:34:05.778Z,7.28
2023-09-12T10:39:17.652Z,6.45
2023-09-12T10:41:54.265Z,6.22
2023-09-12T10:44:27.947Z,5.62
2023-09-12T10:47:01.239Z,4.58
2023-09-12T10:49:34.015Z,4.90
2023-09-12T10:52:08.475Z,5.47
2023-09-12T10:54:42.664Z,4.83
2023-09-12T10:57:16.029Z,5.60
2023-09-12T11:00:08.021Z,5.08
2023-09-12T11:02:45.969Z,5.25
2023-09-12T11:05:34.928Z,5.47
2023-09-12T11:08:08.072Z,4.72
2023-09-12T11:10:42.085Z,6.50
2023-09-12T11:13:21.229Z,5.45
2023-09-12T11:16:13.864Z,5.17
2023-09-12T11:19:24.561Z,5.30
2023-09-12T11:21:57.468Z,4.70
2023-09-12T11:24:30.975Z,4.10
2023-09-12T11:27:07.928Z,4.15
2023-09-12T11:29:43.682Z,4.80
2023-09-12T11:32:29.123Z,5.67
2023-09-12T11:35:04.328Z,5.55
2023-09-12T11:37:39.709Z,5.80
2023-09-12T11:40:17.581Z,4.95
2023-09-12T11:42:51.469Z,5.72
2023-09-12T11:45:25.451Z,6.33
2023-09-12T11:47:59.117Z,5.87
2023-09-12T11:50:42.503Z,6.12
2023-09-12T11:53:15.482Z,5.22
2023-09-12T11:55:51.256Z,5.60
2023-09-12T11:58:25.352Z,5.55
2023-09-12T12:01:00.542Z,6.03
2023-09-12T12:03:33.432Z,4.53
2023-09-12T12:06:08.174Z,4.53
2023-09-12T12:08:41.392Z,5.58
2023-09-12T12:11:14.172Z,5.03
2023-09-12T12:13:47.711Z,5.70
2023-09-12T12:16:21.009Z,5.23
2023-09-12T12:18:58.536Z,4.87
2023-09-12T12:21:33.492Z,4.80
2023-09-12T12:24:09.013Z,4.70
2023-09-12T12:26:46.717Z,5.40
2023-09-12T12:29:20.541Z,5.22
2023-09-12T12:31:54.130Z,4.90
2023-09-12T12:34:54.830Z,5.22
2023-09-12T12:39:34.926Z,4.65
2023-09-12T12:42:09.792Z,4.78
2023-09-12T12:44:42.603Z,4.17
2023-09-12T12:47:15.439Z,4.33
2023-09-12T12:49:52.596Z,4.50
2023-09-12T12:52:28.257Z,6.35
2023-09-12T12:55:08.134Z,3.92
2023-09-12T12:57:42.150Z,4.35
2023-09-12T13:00:17.226Z,4.05
2023-09-12T13:02:49.675Z,4.70
2023-09-12T13:05:25.657Z,3.67
2023-09-12T13:07:59.823Z,4.15
2023-09-12T13:13:05.740Z,3.90
2023-09-12T13:15:38.321Z,4.30
2023-09-12T13:18:11.038Z,4.62
2023-09-12T13:20:43.912Z,4.55
2023-09-12T13:23:16.220Z,4.05
2023-09-12T13:25:49.106Z,4.30
2023-09-12T13:28:21.774Z,4.37
2023-09-12T13:30:55.977Z,3.85
2023-09-12T13:36:01.132Z,4.85
2023-09-12T13:38:33.729Z,4.08
2023-09-12T13:41:11.238Z,4.42
2023-09-12T13:43:46.783Z,4.03
2023-09-12T13:46:23.744Z,4.53
2023-09-12T13:48:59.072Z,4.22
2023-09-12T13:51:35.276Z,3.95
2023-09-12T13:54:10.255Z,4.45
2023-09-12T13:56:46.221Z,3.70
2023-09-12T13:59:19.974Z,3.60
2023-09-12T14:01:52.741Z,3.80
2023-09-12T14:04:25.693Z,5.85
2023-09-12T14:06:59.070Z,3.80
2023-09-12T14:09:32.398Z,4.05
2023-09-12T14:12:11.192Z,4.05
2023-09-12T14:14:39.918Z,3.58
2023-09-12T14:17:13.681Z,3.52
2023-09-12T14:19:48.471Z,4.12
2023-09-12T14:22:23.753Z,3.65
2023-09-12T14:24:58.787Z,3.33
2023-09-12T14:27:34.816Z,4.53
2023-09-12T14:30:08.685Z,5.22
2023-09-12T14:32:42.246Z,4.72
2023-09-12T14:35:16.646Z,4.20
2023-09-12T14:37:50.908Z,4.35
2023-09-12T14:42:56.332Z,3.67
2023-09-12T14:45:31.216Z,4.28
2023-09-12T14:48:04.634Z,4.40
2023-09-12T14:50:42.781Z,4.70
2023-09-12T14:53:11.919Z,5.00
2023-09-12T14:55:45.719Z,3.67
2023-09-12T14:58:20.120Z,4.03
2023-09-12T15:00:53.214Z,4.65
2023-09-12T15:03:26.171Z,4.42
2023-09-12T15:05:59.238Z,4.03
2023-09-12T15:08:33.428Z,4.42
2023-09-12T15:11:07.181Z,4.35
2023-09-12T15:13:42.870Z,3.90
2023-09-12T15:16:15.699Z,4.05
2023-09-12T15:18:50.692Z,4.03
2023-09-12T15:21:24.410Z,3.70
2023-09-12T15:23:57.930Z,3.60
2023-09-12T15:29:13.242Z,5.95
2023-09-12T15:31:45.794Z,4.05
2023-09-12T15:34:18.874Z,3.80
2023-09-12T15:36:51.878Z,4.47
2023-09-12T15:39:24.403Z,4.53
2023-09-12T15:41:57.000Z,4.47
2023-09-12T15:44:30.393Z,5.10
2023-09-12T15:47:15.770Z,4.80
2023-09-12T15:49:37.739Z,4.45
2023-09-12T15:52:10.550Z,4.42
2023-09-12T15:54:43.457Z,5.47
2023-09-12T15:57:16.816Z,5.42
2023-09-12T15:59:50.015Z,4.80
2023-09-12T16:02:22.298Z,4.90
2023-09-12T16:04:55.178Z,5.55
2023-09-12T16:07:28.306Z,4.72
2023-09-12T16:10:01.481Z,4.75
2023-09-12T16:12:36.019Z,5.10
2023-09-12T16:15:10.645Z,4.87
2023-09-12T16:17:46.108Z,5.10
2023-09-12T16:20:19.858Z,7.30
2023-09-12T16:22:52.861Z,7.37
2023-09-12T16:25:25.399Z,7.25
2023-09-12T16:27:58.364Z,8.28
2023-09-12T16:30:32.661Z,7.90
2023-09-12T16:33:06.170Z,12.15
2023-09-12T16:35:39.403Z,8.83
2023-09-12T16:38:12.265Z,8.45
2023-09-12T16:43:18.838Z,10.93
2023-09-12T16:45:52.021Z,9.80
2023-09-12T16:48:24.551Z,6.17
2023-09-12T16:50:57.462Z,6.55
2023-09-12T16:53:29.694Z,5.40
2023-09-12T16:56:02.648Z,4.87
2023-09-12T16:58:35.341Z,4.90
2023-09-12T17:01:08.166Z,4.90
2023-09-12T17:03:41.191Z,5.47
2023-09-12T17:06:14.256Z,4.83
2023-09-12T17:08:48.196Z,5.08
2023-09-12T17:11:22.181Z,5.50
2023-09-12T17:13:54.939Z,5.33
2023-09-12T17:16:27.676Z,6.00
2023-09-12T17:19:00.350Z,5.87
2023-09-12T17:21:33.223Z,5.95
2023-09-12T17:24:05.543Z,5.97
2023-09-12T17:26:38.812Z,6.10
2023-09-12T17:29:12.016Z,5.15
2023-09-12T17:31:44.330Z,4.75
2023-09-12T17:34:17.579Z,5.10
2023-09-12T17:36:50.306Z,5.50
2023-09-12T17:39:23.533Z,4.83
2023-09-12T17:41:57.708Z,4.95
2023-09-12T17:44:30.971Z,5.58
2023-09-12T17:47:04.768Z,4.47
2023-09-12T17:49:37.935Z,6.60
2023-09-12T17:52:11.229Z,7.05
2023-09-12T17:54:45.336Z,5.83
2023-09-12T17:57:18.450Z,5.23
2023-09-12T17:59:51.068Z,6.45
2023-09-12T18:02:23.640Z,5.95
2023-09-12T18:04:56.516Z,6.15
2023-09-12T18:07:29.427Z,5.37
2023-09-12T18:10:02.699Z,5.53
2023-09-12T18:12:36.740Z,5.53
2023-09-12T18:15:11.588Z,6.33
2023-09-12T18:17:44.639Z,6.25
2023-09-12T18:20:19.196Z,6.03
2023-09-12T18:22:56.219Z,5.55
2023-09-12T18:25:31.338Z,5.85
2023-09-12T18:28:04.286Z,5.97
2023-09-12T18:30:37.690Z,6.40
2023-09-12T18:33:11.327Z,6.00
2023-09-12T18:35:44.333Z,5.87
2023-09-12T18:38:17.650Z,5.58
2023-09-12T18:40:50.336Z,6.67
2023-09-12T18:43:23.652Z,6.47
2023-09-12T18:45:58.369Z,7.30
2023-09-12T18:48:32.441Z,6.15
2023-09-12T18:51:08.045Z,5.65
2023-09-12T18:53:41.452Z,5.72
2023-09-12T18:56:14.436Z,6.67
2023-09-12T18:58:46.976Z,5.70
2023-09-12T19:01:20.104Z,5.95
2023-09-12T19:03:54.082Z,6.75
2023-09-12T19:06:28.165Z,6.10
2023-09-12T19:09:00.761Z,5.53
2023-09-12T19:11:33.360Z,6.33
2023-09-12T19:14:07.356Z,5.97
2023-09-12T19:16:40.306Z,5.22
2023-09-12T19:19:13.018Z,5.22
2023-09-12T19:21:45.702Z,6.20
2023-09-12T19:24:18.002Z,5.70
2023-09-12T19:26:50.448Z,6.17
2023-09-12T19:29:23.115Z,5.65
2023-09-12T19:31:55.530Z,6.22
2023-09-12T19:34:27.913Z,6.00
2023-09-12T19:37:00.683Z,5.47
2023-09-12T19:39:33.473Z,5.85
2023-09-12T19:42:06.731Z,6.22
2023-09-12T19:44:40.865Z,6.20
2023-09-12T19:47:13.229Z,5.45
2023-09-12T19:49:45.922Z,6.12
2023-09-12T19:52:20.041Z,5.50
2023-09-12T19:54:52.792Z,6.87
2023-09-12T19:57:26.525Z,6.00
2023-09-12T19:59:59.215Z,5.92
2023-09-12T20:02:33.301Z,6.20
2023-09-12T20:05:06.259Z,6.45
2023-09-12T20:07:38.694Z,7.12
2023-09-12T20:10:11.655Z,6.80
2023-09-12T20:12:43.973Z,6.58
2023-09-12T20:15:16.858Z,6.92
2023-09-12T20:17:53.170Z,6.42
2023-09-12T20:20:25.806Z,6.05
2023-09-12T20:22:58.293Z,6.28
2023-09-12T20:25:32.336Z,6.10
2023-09-12T20:28:04.740Z,6.30
2023-09-12T20:30:37.688Z,6.60
2023-09-12T20:33:10.158Z,7.25
2023-09-12T20:35:42.689Z,6.55
2023-09-12T20:38:14.948Z,6.08
2023-09-12T20:40:47.317Z,6.60
2023-09-12T20:43:19.550Z,7.05
2023-09-12T20:45:54.469Z,6.87
2023-09-12T20:48:26.965Z,6.85
2023-09-12T20:50:59.200Z,6.92
2023-09-12T20:53:31.354Z,7.08
2023-09-12T20:56:04.006Z,7.45
2023-09-12T20:58:37.783Z,7.00
2023-09-12T21:01:10.967Z,7.03
2023-09-12T21:03:44.713Z,7.58
2023-09-12T21:06:17.848Z,7.25
2023-09-12T21:08:52.204Z,7.05
2023-09-12T21:11:24.504Z,7.08
2023-09-12T21:13:56.921Z,6.72
2023-09-12T21:16:29.359Z,6.58
2023-09-12T21:19:01.710Z,7.05
2023-09-12T21:21:34.820Z,6.20
2023-09-12T21:24:07.303Z,7.30
2023-09-12T21:26:39.523Z,6.55
2023-09-12T21:29:12.473Z,6.55
2023-09-12T21:31:44.714Z,6.37
2023-09-12T21:34:17.071Z,7.12
2023-09-12T21:36:49.907Z,6.30
2023-09-12T21:39:22.423Z,6.90
2023-09-12T21:41:56.124Z,7.03
2023-09-12T21:44:28.742Z,6.30
2023-09-12T21:47:01.265Z,6.55
2023-09-12T21:49:33.930Z,6.65
2023-09-12T21:52:06.831Z,6.72
2023-09-12T21:54:40.684Z,6.08
2023-09-12T21:57:14.576Z,5.70
2023-09-12T21:59:47.017Z,6.17
2023-09-12T22:02:19.936Z,6.50
2023-09-12T22:04:52.469Z,6.10
2023-09-12T22:07:24.826Z,5.85
2023-09-12T22:09:57.209Z,5.95
2023-09-12T22:12:29.560Z,6.37
2023-09-12T22:15:01.825Z,5.67
2023-09-12T22:17:35.806Z,6.03
2023-09-12T22:20:10.459Z,6.25
2023-09-12T22:22:44.036Z,6.58
2023-09-12T22:25:16.954Z,6.47
2023-09-12T22:27:49.320Z,6.05
2023-09-12T22:30:21.715Z,6.42
2023-09-12T22:32:54.488Z,5.97
2023-09-12T22:35:27.056Z,6.22
2023-09-12T22:37:59.487Z,6.00
2023-09-12T22:40:31.870Z,6.50
2023-09-12T22:43:04.453Z,6.42
2023-09-12T22:45:37.211Z,6.22
2023-09-12T22:48:09.587Z,6.40
2023-09-12T22:50:43.794Z,6.42
2023-09-12T22:53:16.562Z,5.53
2023-09-12T22:55:48.798Z,6.03
2023-09-12T22:58:21.415Z,6.20
2023-09-12T23:00:54.082Z,6.33
2023-09-12T23:03:26.607Z,6.45
2023-09-12T23:06:00.256Z,6.53
2023-09-12T23:08:32.601Z,6.50
2023-09-12T23:11:05.001Z,6.12
2023-09-12T23:13:37.356Z,7.28
2023-09-12T23:16:09.727Z,6.67
2023-09-12T23:18:42.260Z,6.97
2023-09-12T23:21:14.679Z,6.83
2023-09-12T23:23:47.036Z,6.25
2023-09-12T23:26:20.106Z,6.90
2023-09-12T23:28:52.638Z,7.30
2023-09-12T23:31:25.278Z,6.92
2023-09-12T23:33:57.627Z,6.42
2023-09-12T23:36:30.059Z,6.78
2023-09-12T23:39:03.780Z,6.55
2023-09-12T23:41:36.614Z,6.33
2023-09-12T23:44:08.994Z,7.53
2023-09-12T23:46:41.323Z,7.35
2023-09-12T23:49:13.862Z,6.60
2023-09-12T23:51:46.179Z,6.62
2023-09-12T23:54:18.714Z,6.87
2023-09-12T23:56:50.981Z,6.67
2023-09-12T23:59:23.943Z,6.42
